sensor_id;sensor_type;location;lat;lon;timestamp;P1;durP1;ratioP1;P2;durP2;ratioP2
57593;SDS011;43423;46.510;6.686;2023-06-22T00:01:58;17.70;;;8.73;;
57593;SDS011;43423;46.510;6.686;2023-06-22T00:04:24;22.65;;;8.65;;
57593;SDS011;43423;46.510;6.686;2023-06-22T00:06:50;21.20;;;8.75;;
57593;SDS011;43423;46.510;6.686;2023-06-22T00:09:16;17.95;;;8.70;;
57593;SDS011;43423;46.510;6.686;2023-06-22T00:11:41;23.58;;;9.60;;
57593;SDS011;43423;46.510;6.686;2023-06-22T00:14:07;19.35;;;9.00;;
57593;SDS011;43423;46.510;6.686;2023-06-22T00:16:32;20.02;;;8.80;;
57593;SDS011;43423;46.510;6.686;2023-06-22T00:18:58;20.65;;;8.75;;
57593;SDS011;43423;46.510;6.686;2023-06-22T00:21:29;13.40;;;8.50;;
57593;SDS011;43423;46.510;6.686;2023-06-22T00:23:55;21.48;;;10.18;;
57593;SDS011;43423;46.510;6.686;2023-06-22T00:26:22;17.05;;;8.38;;
57593;SDS011;43423;46.510;6.686;2023-06-22T00:28:48;23.83;;;9.18;;
57593;SDS011;43423;46.510;6.686;2023-06-22T00:31:14;17.33;;;8.73;;
57593;SDS011;43423;46.510;6.686;2023-06-22T00:33:39;23.08;;;8.68;;
57593;SDS011;43423;46.510;6.686;2023-06-22T00:36:05;19.55;;;9.10;;
57593;SDS011;43423;46.510;6.686;2023-06-22T00:38:33;17.25;;;8.70;;
57593;SDS011;43423;46.510;6.686;2023-06-22T00:40:59;18.27;;;8.93;;
57593;SDS011;43423;46.510;6.686;2023-06-22T00:43:24;19.70;;;8.38;;
57593;SDS011;43423;46.510;6.686;2023-06-22T00:45:50;22.55;;;8.68;;
57593;SDS011;43423;46.510;6.686;2023-06-22T00:48:15;17.92;;;8.68;;
57593;SDS011;43423;46.510;6.686;2023-06-22T00:50:41;20.38;;;8.25;;
57593;SDS011;43423;46.510;6.686;2023-06-22T00:53:08;22.85;;;8.85;;
57593;SDS011;43423;46.510;6.686;2023-06-22T00:55:37;25.98;;;9.23;;
57593;SDS011;43423;46.510;6.686;2023-06-22T00:58:07;17.48;;;8.55;;
57593;SDS011;43423;46.510;6.686;2023-06-22T01:00:35;18.25;;;9.48;;
57593;SDS011;43423;46.510;6.686;2023-06-22T01:03:02;20.70;;;8.75;;
57593;SDS011;43423;46.510;6.686;2023-06-22T01:05:29;27.65;;;8.48;;
57593;SDS011;43423;46.510;6.686;2023-06-22T01:10:45;17.55;;;8.00;;
57593;SDS011;43423;46.510;6.686;2023-06-22T01:13:25;19.50;;;8.55;;
57593;SDS011;43423;46.510;6.686;2023-06-22T01:16:43;25.00;;;8.73;;
57593;SDS011;43423;46.510;6.686;2023-06-22T01:18:50;19.90;;;8.25;;
57593;SDS011;43423;46.510;6.686;2023-06-22T01:29:14;19.63;;;8.60;;
57593;SDS011;43423;46.510;6.686;2023-06-22T01:31:41;21.10;;;8.27;;
57593;SDS011;43423;46.510;6.686;2023-06-22T01:34:09;21.17;;;8.00;;
57593;SDS011;43423;46.510;6.686;2023-06-22T01:36:35;20.50;;;8.13;;
57593;SDS011;43423;46.510;6.686;2023-06-22T01:39:03;18.65;;;8.38;;
57593;SDS011;43423;46.510;6.686;2023-06-22T01:41:34;17.38;;;8.25;;
57593;SDS011;43423;46.510;6.686;2023-06-22T01:44:01;20.23;;;8.85;;
57593;SDS011;43423;46.510;6.686;2023-06-22T01:46:30;21.02;;;8.52;;
57593;SDS011;43423;46.510;6.686;2023-06-22T01:48:56;22.48;;;8.68;;
57593;SDS011;43423;46.510;6.686;2023-06-22T01:51:22;27.67;;;8.73;;
57593;SDS011;43423;46.510;6.686;2023-06-22T01:53:47;16.20;;;7.95;;
57593;SDS011;43423;46.510;6.686;2023-06-22T01:56:15;17.40;;;7.82;;
57593;SDS011;43423;46.510;6.686;2023-06-22T01:58:45;18.05;;;8.05;;
57593;SDS011;43423;46.510;6.686;2023-06-22T02:01:15;18.85;;;6.90;;
57593;SDS011;43423;46.510;6.686;2023-06-22T02:03:47;18.27;;;8.57;;
57593;SDS011;43423;46.510;6.686;2023-06-22T02:06:30;16.58;;;7.60;;
57593;SDS011;43423;46.510;6.686;2023-06-22T02:09:02;22.15;;;8.85;;
57593;SDS011;43423;46.510;6.686;2023-06-22T02:11:34;19.77;;;9.05;;
57593;SDS011;43423;46.510;6.686;2023-06-22T02:14:02;18.52;;;8.48;;
57593;SDS011;43423;46.510;6.686;2023-06-22T02:16:28;20.70;;;8.45;;
57593;SDS011;43423;46.510;6.686;2023-06-22T02:18:57;19.35;;;8.48;;
57593;SDS011;43423;46.510;6.686;2023-06-22T02:21:28;26.00;;;8.75;;
57593;SDS011;43423;46.510;6.686;2023-06-22T02:23:56;18.52;;;8.32;;
57593;SDS011;43423;46.510;6.686;2023-06-22T02:26:21;20.35;;;8.15;;
57593;SDS011;43423;46.510;6.686;2023-06-22T02:28:49;16.17;;;7.82;;
57593;SDS011;43423;46.510;6.686;2023-06-22T02:31:14;26.27;;;9.02;;
57593;SDS011;43423;46.510;6.686;2023-06-22T02:33:40;22.63;;;8.07;;
57593;SDS011;43423;46.510;6.686;2023-06-22T02:36:05;16.67;;;8.25;;
57593;SDS011;43423;46.510;6.686;2023-06-22T02:38:34;18.48;;;8.15;;
57593;SDS011;43423;46.510;6.686;2023-06-22T02:41:01;26.33;;;8.57;;
57593;SDS011;43423;46.510;6.686;2023-06-22T02:43:27;21.30;;;8.68;;
57593;SDS011;43423;46.510;6.686;2023-06-22T02:45:52;22.60;;;8.60;;
57593;SDS011;43423;46.510;6.686;2023-06-22T02:48:18;22.52;;;9.75;;
57593;SDS011;43423;46.510;6.686;2023-06-22T02:50:44;22.50;;;8.23;;
57593;SDS011;43423;46.510;6.686;2023-06-22T02:53:09;19.50;;;8.30;;
57593;SDS011;43423;46.510;6.686;2023-06-22T02:55:35;19.25;;;8.38;;
57593;SDS011;43423;46.510;6.686;2023-06-22T02:58:01;22.15;;;8.68;;
57593;SDS011;43423;46.510;6.686;2023-06-22T03:00:29;22.77;;;7.88;;
57593;SDS011;43423;46.510;6.686;2023-06-22T03:02:55;23.23;;;9.10;;
57593;SDS011;43423;46.510;6.686;2023-06-22T03:05:22;19.75;;;8.90;;
57593;SDS011;43423;46.510;6.686;2023-06-22T03:07:48;24.60;;;9.82;;
57593;SDS011;43423;46.510;6.686;2023-06-22T03:10:15;20.77;;;9.27;;
57593;SDS011;43423;46.510;6.686;2023-06-22T03:12:41;22.73;;;10.15;;
57593;SDS011;43423;46.510;6.686;2023-06-22T03:15:08;26.63;;;9.20;;
57593;SDS011;43423;46.510;6.686;2023-06-22T03:17:36;21.15;;;9.05;;
57593;SDS011;43423;46.510;6.686;2023-06-22T03:20:04;20.58;;;9.45;;
57593;SDS011;43423;46.510;6.686;2023-06-22T03:22:37;17.13;;;8.68;;
57593;SDS011;43423;46.510;6.686;2023-06-22T03:25:03;22.45;;;9.07;;
57593;SDS011;43423;46.510;6.686;2023-06-22T03:27:29;21.23;;;8.20;;
57593;SDS011;43423;46.510;6.686;2023-06-22T03:29:56;17.55;;;7.90;;
57593;SDS011;43423;46.510;6.686;2023-06-22T03:32:23;26.35;;;8.98;;
57593;SDS011;43423;46.510;6.686;2023-06-22T03:34:48;23.38;;;9.80;;
57593;SDS011;43423;46.510;6.686;2023-06-22T03:37:14;24.27;;;8.88;;
57593;SDS011;43423;46.510;6.686;2023-06-22T03:39:40;20.70;;;8.30;;
57593;SDS011;43423;46.510;6.686;2023-06-22T03:42:06;23.25;;;9.15;;
57593;SDS011;43423;46.510;6.686;2023-06-22T03:44:32;21.70;;;8.40;;
57593;SDS011;43423;46.510;6.686;2023-06-22T03:46:58;25.25;;;9.18;;
57593;SDS011;43423;46.510;6.686;2023-06-22T03:49:23;21.80;;;8.57;;
57593;SDS011;43423;46.510;6.686;2023-06-22T03:51:49;23.80;;;7.53;;
57593;SDS011;43423;46.510;6.686;2023-06-22T03:54:14;19.58;;;7.60;;
57593;SDS011;43423;46.510;6.686;2023-06-22T03:56:40;23.35;;;8.15;;
57593;SDS011;43423;46.510;6.686;2023-06-22T03:59:05;22.52;;;7.90;;
57593;SDS011;43423;46.510;6.686;2023-06-22T04:01:31;26.38;;;8.27;;
57593;SDS011;43423;46.510;6.686;2023-06-22T04:03:56;20.17;;;7.68;;
57593;SDS011;43423;46.510;6.686;2023-06-22T04:06:22;24.27;;;7.68;;
57593;SDS011;43423;46.510;6.686;2023-06-22T04:08:47;21.95;;;7.53;;
57593;SDS011;43423;46.510;6.686;2023-06-22T04:11:16;25.25;;;7.32;;
57593;SDS011;43423;46.510;6.686;2023-06-22T04:13:43;22.27;;;7.88;;
57593;SDS011;43423;46.510;6.686;2023-06-22T04:16:09;25.48;;;8.63;;
57593;SDS011;43423;46.510;6.686;2023-06-22T04:18:34;17.05;;;8.07;;
57593;SDS011;43423;46.510;6.686;2023-06-22T04:21:01;19.25;;;7.40;;
57593;SDS011;43423;46.510;6.686;2023-06-22T04:23:27;24.15;;;8.25;;
57593;SDS011;43423;46.510;6.686;2023-06-22T04:25:52;18.88;;;8.35;;
57593;SDS011;43423;46.510;6.686;2023-06-22T04:28:18;23.85;;;8.07;;
57593;SDS011;43423;46.510;6.686;2023-06-22T04:30:43;23.52;;;10.00;;
57593;SDS011;43423;46.510;6.686;2023-06-22T04:33:15;20.63;;;8.43;;
57593;SDS011;43423;46.510;6.686;2023-06-22T04:35:41;21.00;;;7.32;;
57593;SDS011;43423;46.510;6.686;2023-06-22T04:38:11;25.77;;;8.75;;
57593;SDS011;43423;46.510;6.686;2023-06-22T04:40:39;19.75;;;8.20;;
57593;SDS011;43423;46.510;6.686;2023-06-22T04:43:05;23.80;;;9.05;;
57593;SDS011;43423;46.510;6.686;2023-06-22T04:45:32;24.92;;;8.27;;
57593;SDS011;43423;46.510;6.686;2023-06-22T04:47:58;21.83;;;8.05;;
57593;SDS011;43423;46.510;6.686;2023-06-22T04:50:24;19.85;;;7.43;;
57593;SDS011;43423;46.510;6.686;2023-06-22T04:52:50;25.85;;;9.45;;
57593;SDS011;43423;46.510;6.686;2023-06-22T04:55:16;20.63;;;8.95;;
57593;SDS011;43423;46.510;6.686;2023-06-22T04:57:45;23.50;;;8.38;;
57593;SDS011;43423;46.510;6.686;2023-06-22T05:00:17;20.77;;;8.90;;
57593;SDS011;43423;46.510;6.686;2023-06-22T05:02:48;25.58;;;10.02;;
57593;SDS011;43423;46.510;6.686;2023-06-22T05:05:15;22.25;;;8.30;;
57593;SDS011;43423;46.510;6.686;2023-06-22T05:07:44;21.95;;;8.93;;
57593;SDS011;43423;46.510;6.686;2023-06-22T05:10:13;21.60;;;9.13;;
57593;SDS011;43423;46.510;6.686;2023-06-22T05:12:40;22.23;;;8.52;;
57593;SDS011;43423;46.510;6.686;2023-06-22T05:15:07;23.33;;;8.48;;
57593;SDS011;43423;46.510;6.686;2023-06-22T05:17:33;20.05;;;8.77;;
57593;SDS011;43423;46.510;6.686;2023-06-22T05:19:59;21.73;;;8.90;;
57593;SDS011;43423;46.510;6.686;2023-06-22T05:22:25;20.48;;;8.63;;
57593;SDS011;43423;46.510;6.686;2023-06-22T05:24:51;19.58;;;8.55;;
57593;SDS011;43423;46.510;6.686;2023-06-22T05:27:16;24.10;;;8.93;;
57593;SDS011;43423;46.510;6.686;2023-06-22T05:29:42;21.52;;;9.18;;
57593;SDS011;43423;46.510;6.686;2023-06-22T05:32:08;28.70;;;9.82;;
57593;SDS011;43423;46.510;6.686;2023-06-22T05:34:33;24.13;;;9.55;;
57593;SDS011;43423;46.510;6.686;2023-06-22T05:36:59;23.33;;;9.55;;
57593;SDS011;43423;46.510;6.686;2023-06-22T05:39:25;22.05;;;10.23;;
57593;SDS011;43423;46.510;6.686;2023-06-22T05:41:51;23.80;;;9.93;;
57593;SDS011;43423;46.510;6.686;2023-06-22T05:44:17;20.30;;;10.32;;
57593;SDS011;43423;46.510;6.686;2023-06-22T05:46:43;26.83;;;9.50;;
57593;SDS011;43423;46.510;6.686;2023-06-22T05:49:13;15.75;;;8.23;;
57593;SDS011;43423;46.510;6.686;2023-06-22T05:51:39;22.55;;;9.30;;
57593;SDS011;43423;46.510;6.686;2023-06-22T05:54:05;18.70;;;8.07;;
57593;SDS011;43423;46.510;6.686;2023-06-22T05:56:30;23.17;;;8.77;;
57593;SDS011;43423;46.510;6.686;2023-06-22T05:58:56;21.60;;;7.65;;
57593;SDS011;43423;46.510;6.686;2023-06-22T06:01:22;19.13;;;8.27;;
57593;SDS011;43423;46.510;6.686;2023-06-22T06:03:47;21.48;;;8.95;;
57593;SDS011;43423;46.510;6.686;2023-06-22T06:06:14;17.98;;;8.75;;
57593;SDS011;43423;46.510;6.686;2023-06-22T06:08:40;21.08;;;8.68;;
57593;SDS011;43423;46.510;6.686;2023-06-22T06:11:06;22.27;;;9.43;;
57593;SDS011;43423;46.510;6.686;2023-06-22T06:13:31;22.52;;;8.32;;
57593;SDS011;43423;46.510;6.686;2023-06-22T06:15:57;18.70;;;8.73;;
57593;SDS011;43423;46.510;6.686;2023-06-22T06:18:23;24.48;;;9.10;;
57593;SDS011;43423;46.510;6.686;2023-06-22T06:20:48;26.25;;;9.30;;
57593;SDS011;43423;46.510;6.686;2023-06-22T06:23:14;23.58;;;8.82;;
57593;SDS011;43423;46.510;6.686;2023-06-22T06:25:39;20.60;;;9.00;;
57593;SDS011;43423;46.510;6.686;2023-06-22T06:28:05;19.33;;;8.48;;
57593;SDS011;43423;46.510;6.686;2023-06-22T06:30:31;21.70;;;8.68;;
57593;SDS011;43423;46.510;6.686;2023-06-22T06:32:56;21.92;;;8.63;;
57593;SDS011;43423;46.510;6.686;2023-06-22T06:35:22;23.20;;;9.10;;
57593;SDS011;43423;46.510;6.686;2023-06-22T06:37:48;23.02;;;9.00;;
57593;SDS011;43423;46.510;6.686;2023-06-22T06:40:15;22.23;;;9.32;;
57593;SDS011;43423;46.510;6.686;2023-06-22T06:42:43;19.17;;;8.27;;
57593;SDS011;43423;46.510;6.686;2023-06-22T06:45:11;20.80;;;8.85;;
57593;SDS011;43423;46.510;6.686;2023-06-22T06:47:37;17.33;;;7.85;;
57593;SDS011;43423;46.510;6.686;2023-06-22T06:50:04;17.20;;;7.55;;
57593;SDS011;43423;46.510;6.686;2023-06-22T06:52:30;26.27;;;8.68;;
57593;SDS011;43423;46.510;6.686;2023-06-22T06:54:55;25.27;;;8.60;;
57593;SDS011;43423;46.510;6.686;2023-06-22T06:57:21;27.45;;;9.10;;
57593;SDS011;43423;46.510;6.686;2023-06-22T06:59:48;16.05;;;8.13;;
57593;SDS011;43423;46.510;6.686;2023-06-22T07:02:14;24.70;;;9.73;;
57593;SDS011;43423;46.510;6.686;2023-06-22T07:04:40;28.00;;;10.15;;
57593;SDS011;43423;46.510;6.686;2023-06-22T07:07:06;20.60;;;9.70;;
57593;SDS011;43423;46.510;6.686;2023-06-22T07:09:32;22.10;;;8.38;;
57593;SDS011;43423;46.510;6.686;2023-06-22T07:11:58;17.15;;;8.25;;
57593;SDS011;43423;46.510;6.686;2023-06-22T07:14:23;22.33;;;9.10;;
57593;SDS011;43423;46.510;6.686;2023-06-22T07:16:49;20.25;;;8.48;;
57593;SDS011;43423;46.510;6.686;2023-06-22T07:19:14;20.80;;;8.40;;
57593;SDS011;43423;46.510;6.686;2023-06-22T07:21:40;21.30;;;9.30;;
57593;SDS011;43423;46.510;6.686;2023-06-22T07:24:06;28.85;;;10.65;;
57593;SDS011;43423;46.510;6.686;2023-06-22T07:26:32;22.88;;;8.95;;
57593;SDS011;43423;46.510;6.686;2023-06-22T07:28:58;24.80;;;9.73;;
57593;SDS011;43423;46.510;6.686;2023-06-22T07:31:24;22.63;;;8.38;;
57593;SDS011;43423;46.510;6.686;2023-06-22T07:33:50;24.80;;;9.23;;
57593;SDS011;43423;46.510;6.686;2023-06-22T07:36:16;19.77;;;8.65;;
57593;SDS011;43423;46.510;6.686;2023-06-22T07:38:42;23.10;;;8.48;;
57593;SDS011;43423;46.510;6.686;2023-06-22T07:41:08;28.05;;;9.15;;
57593;SDS011;43423;46.510;6.686;2023-06-22T07:43:33;20.23;;;8.88;;
57593;SDS011;43423;46.510;6.686;2023-06-22T07:46:04;25.77;;;9.57;;
57593;SDS011;43423;46.510;6.686;2023-06-22T07:48:30;20.17;;;8.50;;
57593;SDS011;43423;46.510;6.686;2023-06-22T07:50:56;27.83;;;9.48;;
57593;SDS011;43423;46.510;6.686;2023-06-22T07:53:21;23.00;;;8.77;;
57593;SDS011;43423;46.510;6.686;2023-06-22T07:55:48;21.60;;;8.60;;
57593;SDS011;43423;46.510;6.686;2023-06-22T07:58:14;19.60;;;8.63;;
57593;SDS011;43423;46.510;6.686;2023-06-22T08:00:41;23.00;;;8.40;;
57593;SDS011;43423;46.510;6.686;2023-06-22T08:03:06;22.50;;;8.55;;
57593;SDS011;43423;46.510;6.686;2023-06-22T08:05:32;15.27;;;7.45;;
57593;SDS011;43423;46.510;6.686;2023-06-22T08:07:58;19.52;;;7.82;;
57593;SDS011;43423;46.510;6.686;2023-06-22T08:10:24;26.85;;;7.93;;
57593;SDS011;43423;46.510;6.686;2023-06-22T08:12:49;16.73;;;8.27;;
57593;SDS011;43423;46.510;6.686;2023-06-22T08:15:16;26.73;;;9.13;;
57593;SDS011;43423;46.510;6.686;2023-06-22T08:17:43;23.17;;;8.93;;
57593;SDS011;43423;46.510;6.686;2023-06-22T08:20:09;21.63;;;9.48;;
57593;SDS011;43423;46.510;6.686;2023-06-22T08:22:37;30.73;;;10.13;;
57593;SDS011;43423;46.510;6.686;2023-06-22T08:25:03;29.30;;;10.60;;
57593;SDS011;43423;46.510;6.686;2023-06-22T08:27:32;21.50;;;10.38;;
57593;SDS011;43423;46.510;6.686;2023-06-22T08:29:58;29.98;;;9.93;;
57593;SDS011;43423;46.510;6.686;2023-06-22T08:32:27;25.60;;;10.57;;
57593;SDS011;43423;46.510;6.686;2023-06-22T08:34:54;24.23;;;10.52;;
57593;SDS011;43423;46.510;6.686;2023-06-22T08:37:20;28.00;;;10.07;;
57593;SDS011;43423;46.510;6.686;2023-06-22T08:39:45;22.58;;;9.60;;
57593;SDS011;43423;46.510;6.686;2023-06-22T08:42:11;23.95;;;9.90;;
57593;SDS011;43423;46.510;6.686;2023-06-22T08:44:37;23.33;;;9.90;;
57593;SDS011;43423;46.510;6.686;2023-06-22T08:47:03;27.27;;;9.73;;
57593;SDS011;43423;46.510;6.686;2023-06-22T08:49:29;23.77;;;9.77;;
57593;SDS011;43423;46.510;6.686;2023-06-22T08:51:54;26.30;;;10.25;;
57593;SDS011;43423;46.510;6.686;2023-06-22T08:54:22;22.20;;;9.48;;
57593;SDS011;43423;46.510;6.686;2023-06-22T08:56:48;19.40;;;8.98;;
57593;SDS011;43423;46.510;6.686;2023-06-22T08:59:13;17.17;;;8.75;;
57593;SDS011;43423;46.510;6.686;2023-06-22T09:01:39;19.15;;;8.93;;
57593;SDS011;43423;46.510;6.686;2023-06-22T09:04:05;19.85;;;9.70;;
57593;SDS011;43423;46.510;6.686;2023-06-22T09:06:32;22.38;;;8.98;;
57593;SDS011;43423;46.510;6.686;2023-06-22T09:08:58;27.98;;;9.85;;
57593;SDS011;43423;46.510;6.686;2023-06-22T09:11:26;23.33;;;9.82;;
57593;SDS011;43423;46.510;6.686;2023-06-22T09:13:52;26.50;;;9.32;;
57593;SDS011;43423;46.510;6.686;2023-06-22T09:16:18;24.60;;;9.40;;
57593;SDS011;43423;46.510;6.686;2023-06-22T09:18:47;27.38;;;10.15;;
57593;SDS011;43423;46.510;6.686;2023-06-22T09:21:13;19.60;;;9.40;;
57593;SDS011;43423;46.510;6.686;2023-06-22T09:23:39;21.90;;;8.80;;
57593;SDS011;43423;46.510;6.686;2023-06-22T09:26:05;25.05;;;10.02;;
57593;SDS011;43423;46.510;6.686;2023-06-22T09:28:30;25.30;;;10.05;;
57593;SDS011;43423;46.510;6.686;2023-06-22T09:30:56;30.90;;;10.57;;
57593;SDS011;43423;46.510;6.686;2023-06-22T09:33:24;24.63;;;9.23;;
57593;SDS011;43423;46.510;6.686;2023-06-22T09:35:50;23.50;;;9.75;;
57593;SDS011;43423;46.510;6.686;2023-06-22T09:38:16;27.25;;;10.00;;
57593;SDS011;43423;46.510;6.686;2023-06-22T09:40:42;26.40;;;11.25;;
57593;SDS011;43423;46.510;6.686;2023-06-22T09:43:08;25.25;;;10.43;;
57593;SDS011;43423;46.510;6.686;2023-06-22T09:45:34;28.95;;;11.00;;
57593;SDS011;43423;46.510;6.686;2023-06-22T09:47:59;27.13;;;10.40;;
57593;SDS011;43423;46.510;6.686;2023-06-22T09:50:25;23.50;;;9.65;;
57593;SDS011;43423;46.510;6.686;2023-06-22T09:52:51;29.55;;;10.73;;
57593;SDS011;43423;46.510;6.686;2023-06-22T09:55:20;24.73;;;11.30;;
57593;SDS011;43423;46.510;6.686;2023-06-22T09:57:46;22.42;;;10.45;;
57593;SDS011;43423;46.510;6.686;2023-06-22T10:00:12;32.90;;;9.88;;
57593;SDS011;43423;46.510;6.686;2023-06-22T10:02:39;28.17;;;10.85;;
57593;SDS011;43423;46.510;6.686;2023-06-22T10:05:06;22.92;;;10.40;;
57593;SDS011;43423;46.510;6.686;2023-06-22T10:07:33;28.05;;;11.25;;
57593;SDS011;43423;46.510;6.686;2023-06-22T10:09:58;28.15;;;11.20;;
57593;SDS011;43423;46.510;6.686;2023-06-22T10:12:25;21.15;;;10.68;;
57593;SDS011;43423;46.510;6.686;2023-06-22T10:14:52;18.52;;;8.43;;
57593;SDS011;43423;46.510;6.686;2023-06-22T10:17:18;24.38;;;8.35;;
57593;SDS011;43423;46.510;6.686;2023-06-22T10:19:43;15.82;;;8.18;;
57593;SDS011;43423;46.510;6.686;2023-06-22T10:22:09;21.05;;;7.82;;
57593;SDS011;43423;46.510;6.686;2023-06-22T10:24:35;22.33;;;7.22;;
57593;SDS011;43423;46.510;6.686;2023-06-22T10:27:00;18.83;;;6.75;;
57593;SDS011;43423;46.510;6.686;2023-06-22T10:29:26;18.10;;;6.75;;
57593;SDS011;43423;46.510;6.686;2023-06-22T10:31:52;15.40;;;5.43;;
57593;SDS011;43423;46.510;6.686;2023-06-22T10:34:17;20.83;;;6.05;;
57593;SDS011;43423;46.510;6.686;2023-06-22T10:36:43;13.98;;;5.28;;
57593;SDS011;43423;46.510;6.686;2023-06-22T10:39:08;14.70;;;4.65;;
57593;SDS011;43423;46.510;6.686;2023-06-22T10:41:35;13.15;;;3.63;;
57593;SDS011;43423;46.510;6.686;2023-06-22T10:44:00;10.68;;;3.03;;
57593;SDS011;43423;46.510;6.686;2023-06-22T10:46:26;7.20;;;2.47;;
57593;SDS011;43423;46.510;6.686;2023-06-22T10:48:52;10.38;;;2.80;;
57593;SDS011;43423;46.510;6.686;2023-06-22T10:51:20;6.55;;;2.60;;
57593;SDS011;43423;46.510;6.686;2023-06-22T10:53:46;11.43;;;2.75;;
57593;SDS011;43423;46.510;6.686;2023-06-22T10:56:11;14.15;;;3.20;;
57593;SDS011;43423;46.510;6.686;2023-06-22T10:58:37;13.43;;;3.85;;
57593;SDS011;43423;46.510;6.686;2023-06-22T11:01:02;10.35;;;3.08;;
57593;SDS011;43423;46.510;6.686;2023-06-22T11:03:28;9.88;;;2.65;;
57593;SDS011;43423;46.510;6.686;2023-06-22T11:05:54;11.88;;;3.35;;
57593;SDS011;43423;46.510;6.686;2023-06-22T11:08:19;8.85;;;3.17;;
57593;SDS011;43423;46.510;6.686;2023-06-22T11:10:45;16.55;;;4.43;;
57593;SDS011;43423;46.510;6.686;2023-06-22T11:13:10;9.23;;;3.50;;
57593;SDS011;43423;46.510;6.686;2023-06-22T11:15:36;12.35;;;4.03;;
57593;SDS011;43423;46.510;6.686;2023-06-22T11:18:02;13.93;;;4.30;;
57593;SDS011;43423;46.510;6.686;2023-06-22T11:20:27;11.38;;;4.78;;
57593;SDS011;43423;46.510;6.686;2023-06-22T11:22:53;13.45;;;4.78;;
57593;SDS011;43423;46.510;6.686;2023-06-22T11:25:18;11.18;;;4.55;;
57593;SDS011;43423;46.510;6.686;2023-06-22T11:27:44;17.25;;;5.18;;
57593;SDS011;43423;46.510;6.686;2023-06-22T11:30:10;15.50;;;4.50;;
57593;SDS011;43423;46.510;6.686;2023-06-22T11:32:35;12.98;;;4.35;;
57593;SDS011;43423;46.510;6.686;2023-06-22T11:35:01;18.02;;;4.72;;
57593;SDS011;43423;46.510;6.686;2023-06-22T11:37:27;16.63;;;5.00;;
57593;SDS011;43423;46.510;6.686;2023-06-22T11:39:52;19.10;;;5.28;;
57593;SDS011;43423;46.510;6.686;2023-06-22T11:42:20;14.98;;;4.35;;
57593;SDS011;43423;46.510;6.686;2023-06-22T11:44:46;16.00;;;4.60;;
57593;SDS011;43423;46.510;6.686;2023-06-22T11:47:11;11.65;;;4.22;;
57593;SDS011;43423;46.510;6.686;2023-06-22T11:49:37;18.75;;;5.55;;
57593;SDS011;43423;46.510;6.686;2023-06-22T11:52:02;11.10;;;4.80;;
57593;SDS011;43423;46.510;6.686;2023-06-22T11:54:28;17.40;;;5.20;;
57593;SDS011;43423;46.510;6.686;2023-06-22T11:56:53;18.70;;;5.03;;
57593;SDS011;43423;46.510;6.686;2023-06-22T11:59:19;15.95;;;6.03;;
57593;SDS011;43423;46.510;6.686;2023-06-22T12:01:46;13.85;;;5.72;;
57593;SDS011;43423;46.510;6.686;2023-06-22T12:04:12;17.33;;;5.60;;
57593;SDS011;43423;46.510;6.686;2023-06-22T12:06:37;16.65;;;5.88;;
57593;SDS011;43423;46.510;6.686;2023-06-22T12:09:03;17.17;;;6.20;;
57593;SDS011;43423;46.510;6.686;2023-06-22T12:11:32;22.42;;;6.63;;
57593;SDS011;43423;46.510;6.686;2023-06-22T12:13:58;16.30;;;6.45;;
57593;SDS011;43423;46.510;6.686;2023-06-22T12:16:27;15.93;;;6.35;;
57593;SDS011;43423;46.510;6.686;2023-06-22T12:18:53;17.80;;;5.45;;
57593;SDS011;43423;46.510;6.686;2023-06-22T12:21:19;13.52;;;5.43;;
57593;SDS011;43423;46.510;6.686;2023-06-22T12:23:44;15.50;;;6.18;;
57593;SDS011;43423;46.510;6.686;2023-06-22T12:26:10;14.00;;;5.63;;
57593;SDS011;43423;46.510;6.686;2023-06-22T12:28:36;15.13;;;5.20;;
57593;SDS011;43423;46.510;6.686;2023-06-22T12:31:01;14.27;;;5.47;;
57593;SDS011;43423;46.510;6.686;2023-06-22T12:33:27;18.08;;;5.38;;
57593;SDS011;43423;46.510;6.686;2023-06-22T12:35:52;14.57;;;5.35;;
57593;SDS011;43423;46.510;6.686;2023-06-22T12:38:18;18.95;;;5.47;;
57593;SDS011;43423;46.510;6.686;2023-06-22T12:40:43;17.02;;;5.43;;
57593;SDS011;43423;46.510;6.686;2023-06-22T12:43:09;17.25;;;4.68;;
57593;SDS011;43423;46.510;6.686;2023-06-22T12:45:34;17.60;;;4.90;;
57593;SDS011;43423;46.510;6.686;2023-06-22T12:48:00;20.95;;;4.75;;
57593;SDS011;43423;46.510;6.686;2023-06-22T12:50:25;18.60;;;4.95;;
57593;SDS011;43423;46.510;6.686;2023-06-22T12:52:51;17.20;;;4.88;;
57593;SDS011;43423;46.510;6.686;2023-06-22T12:55:17;19.20;;;5.32;;
57593;SDS011;43423;46.510;6.686;2023-06-22T12:57:43;16.00;;;5.40;;
57593;SDS011;43423;46.510;6.686;2023-06-22T13:00:08;10.23;;;3.97;;
57593;SDS011;43423;46.510;6.686;2023-06-22T13:02:37;16.38;;;4.13;;
57593;SDS011;43423;46.510;6.686;2023-06-22T13:05:03;16.17;;;4.90;;
57593;SDS011;43423;46.510;6.686;2023-06-22T13:07:30;10.18;;;3.78;;
57593;SDS011;43423;46.510;6.686;2023-06-22T13:09:56;11.68;;;4.10;;
57593;SDS011;43423;46.510;6.686;2023-06-22T13:12:22;16.23;;;3.58;;
57593;SDS011;43423;46.510;6.686;2023-06-22T13:14:48;12.00;;;3.67;;
57593;SDS011;43423;46.510;6.686;2023-06-22T13:17:14;10.38;;;3.33;;
57593;SDS011;43423;46.510;6.686;2023-06-22T13:19:39;15.70;;;4.03;;
57593;SDS011;43423;46.510;6.686;2023-06-22T13:22:24;14.98;;;5.25;;
57593;SDS011;43423;46.510;6.686;2023-06-22T13:24:55;12.73;;;3.45;;
57593;SDS011;43423;46.510;6.686;2023-06-22T13:27:22;17.02;;;4.55;;
57593;SDS011;43423;46.510;6.686;2023-06-22T13:29:47;14.27;;;3.70;;
57593;SDS011;43423;46.510;6.686;2023-06-22T13:32:13;12.20;;;3.50;;
57593;SDS011;43423;46.510;6.686;2023-06-22T13:34:38;16.98;;;3.70;;
57593;SDS011;43423;46.510;6.686;2023-06-22T13:37:04;11.27;;;4.18;;
57593;SDS011;43423;46.510;6.686;2023-06-22T13:39:30;12.95;;;3.50;;
57593;SDS011;43423;46.510;6.686;2023-06-22T13:41:56;19.75;;;4.20;;
57593;SDS011;43423;46.510;6.686;2023-06-22T13:44:21;12.30;;;3.75;;
57593;SDS011;43423;46.510;6.686;2023-06-22T13:46:47;12.20;;;3.60;;
57593;SDS011;43423;46.510;6.686;2023-06-22T13:49:13;10.07;;;3.38;;
57593;SDS011;43423;46.510;6.686;2023-06-22T13:51:38;12.40;;;3.55;;
57593;SDS011;43423;46.510;6.686;2023-06-22T13:54:04;16.45;;;3.78;;
57593;SDS011;43423;46.510;6.686;2023-06-22T13:56:29;9.77;;;3.70;;
57593;SDS011;43423;46.510;6.686;2023-06-22T13:58:55;13.52;;;3.67;;
57593;SDS011;43423;46.510;6.686;2023-06-22T14:01:20;11.63;;;3.35;;
57593;SDS011;43423;46.510;6.686;2023-06-22T14:03:47;11.55;;;3.80;;
57593;SDS011;43423;46.510;6.686;2023-06-22T14:06:13;13.68;;;4.28;;
57593;SDS011;43423;46.510;6.686;2023-06-22T14:08:39;16.95;;;3.88;;
57593;SDS011;43423;46.510;6.686;2023-06-22T14:11:04;14.20;;;3.80;;
57593;SDS011;43423;46.510;6.686;2023-06-22T14:13:30;16.70;;;3.75;;
57593;SDS011;43423;46.510;6.686;2023-06-22T14:15:55;16.38;;;3.90;;
57593;SDS011;43423;46.510;6.686;2023-06-22T14:18:21;17.98;;;4.20;;
57593;SDS011;43423;46.510;6.686;2023-06-22T14:20:48;18.48;;;4.60;;
57593;SDS011;43423;46.510;6.686;2023-06-22T14:23:14;13.77;;;3.70;;
57593;SDS011;43423;46.510;6.686;2023-06-22T14:25:40;12.30;;;3.40;;
57593;SDS011;43423;46.510;6.686;2023-06-22T14:28:05;15.07;;;3.95;;
57593;SDS011;43423;46.510;6.686;2023-06-22T14:30:31;16.77;;;4.40;;
57593;SDS011;43423;46.510;6.686;2023-06-22T14:32:56;14.10;;;3.75;;
57593;SDS011;43423;46.510;6.686;2023-06-22T14:35:22;17.58;;;4.13;;
57593;SDS011;43423;46.510;6.686;2023-06-22T14:37:49;9.65;;;3.75;;
57593;SDS011;43423;46.510;6.686;2023-06-22T14:40:15;18.88;;;4.25;;